createdAt,value
2022-12-31T00:01:50.180Z,66.18
2022-12-31T00:04:17.041Z,78.13
2022-12-31T00:06:43.885Z,69.88
2022-12-31T00:09:10.894Z,67.97
2022-12-31T00:11:38.453Z,69.47
2022-12-31T00:14:05.489Z,67.80
2022-12-31T00:16:36.554Z,70.03
2022-12-31T00:19:04.998Z,66.30
2022-12-31T00:21:33.501Z,64.88
2022-12-31T00:24:01.522Z,66.85
2022-12-31T00:26:30.872Z,66.75
2022-12-31T00:28:59.801Z,71.05
2022-12-31T00:31:32.296Z,63.45
2022-12-31T00:34:00.224Z,64.10
2022-12-31T00:36:32.592Z,67.03
2022-12-31T00:39:01.296Z,68.88
2022-12-31T00:41:29.021Z,64.25
2022-12-31T00:43:55.863Z,61.33
2022-12-31T00:46:23.358Z,68.00
2022-12-31T00:48:50.069Z,68.03
2022-12-31T00:51:19.382Z,66.55
2022-12-31T00:53:46.189Z,65.40
2022-12-31T00:56:22.112Z,62.70
2022-12-31T00:58:49.885Z,65.55
2022-12-31T01:01:19.384Z,63.65
2022-12-31T01:03:47.696Z,65.40
2022-12-31T01:06:15.131Z,70.57
2022-12-31T01:08:41.793Z,63.20
2022-12-31T01:11:20.522Z,66.07
2022-12-31T01:13:58.252Z,66.03
2022-12-31T01:16:38.952Z,60.88
2022-12-31T01:19:10.139Z,65.47
2022-12-31T01:21:38.540Z,66.05
2022-12-31T01:24:05.689Z,68.32
2022-12-31T01:26:32.767Z,64.75
2022-12-31T01:28:59.578Z,64.88
2022-12-31T01:31:27.080Z,64.75
2022-12-31T01:33:54.523Z,62.85
2022-12-31T01:36:26.261Z,67.57
2022-12-31T01:38:54.922Z,69.25
2022-12-31T01:41:28.398Z,67.95
2022-12-31T01:44:16.803Z,62.83
2022-12-31T01:46:53.542Z,67.00
2022-12-31T01:49:30.942Z,67.10
2022-12-31T01:52:08.677Z,64.50
2022-12-31T01:54:40.760Z,65.45
2022-12-31T01:57:09.084Z,65.45
2022-12-31T01:59:36.366Z,63.10
2022-12-31T02:02:04.374Z,60.92
2022-12-31T02:04:31.681Z,64.78
2022-12-31T02:07:04.928Z,66.93
2022-12-31T02:09:32.570Z,64.40
2022-12-31T02:12:00.110Z,65.90
2022-12-31T02:14:34.016Z,58.08
2022-12-31T02:17:15.978Z,61.83
2022-12-31T02:20:03.671Z,67.85
2022-12-31T02:22:45.454Z,67.85
2022-12-31T02:25:49.217Z,63.30
2022-12-31T02:28:54.938Z,61.88
2022-12-31T02:31:30.836Z,66.28
2022-12-31T02:34:02.487Z,66.32
2022-12-31T02:36:34.655Z,65.97
2022-12-31T02:39:04.202Z,64.15
2022-12-31T02:41:49.872Z,63.65
2022-12-31T02:44:28.953Z,66.28
2022-12-31T02:46:58.990Z,67.20
2022-12-31T02:49:58.343Z,62.67
2022-12-31T02:52:45.364Z,69.05
2022-12-31T02:55:21.117Z,64.38
2022-12-31T02:58:13.885Z,66.70
2022-12-31T03:01:09.718Z,62.00
2022-12-31T03:03:37.946Z,56.67
2022-12-31T03:06:06.215Z,63.17
2022-12-31T03:08:52.931Z,61.28
2022-12-31T03:11:39.569Z,66.90
2022-12-31T03:14:06.487Z,68.90
2022-12-31T03:16:34.881Z,68.63
2022-12-31T03:19:20.386Z,66.80
2022-12-31T03:22:05.970Z,60.85
2022-12-31T03:24:51.341Z,63.50
2022-12-31T03:27:18.025Z,64.03
2022-12-31T03:29:44.770Z,61.65
2022-12-31T03:32:11.600Z,61.83
2022-12-31T03:34:38.301Z,65.45
2022-12-31T03:37:04.997Z,62.83
2022-12-31T03:39:31.809Z,62.55
2022-12-31T03:41:58.521Z,62.13
2022-12-31T03:44:25.251Z,57.65
2022-12-31T03:46:52.221Z,56.60
2022-12-31T03:49:18.971Z,60.75
2022-12-31T03:51:45.626Z,65.57
2022-12-31T03:54:12.442Z,58.72
2022-12-31T03:56:39.248Z,58.35
2022-12-31T03:59:05.929Z,61.30
2022-12-31T04:01:32.893Z,55.75
2022-12-31T04:03:59.791Z,56.13
2022-12-31T04:06:27.231Z,61.58
2022-12-31T04:08:53.995Z,57.45
2022-12-31T04:11:21.266Z,55.08
2022-12-31T04:13:48.074Z,57.42
2022-12-31T04:16:15.077Z,56.33
2022-12-31T04:18:41.857Z,51.60
2022-12-31T04:21:08.677Z,54.72
2022-12-31T04:23:35.491Z,59.42
2022-12-31T04:26:02.175Z,53.42
2022-12-31T04:28:28.840Z,57.78
2022-12-31T04:30:55.577Z,57.78
2022-12-31T04:33:24.954Z,57.90
2022-12-31T04:35:51.644Z,58.08
2022-12-31T04:38:18.421Z,62.97
2022-12-31T04:41:04.113Z,52.80
2022-12-31T04:43:30.893Z,55.67
2022-12-31T04:45:57.768Z,56.58
2022-12-31T04:48:24.593Z,55.47
2022-12-31T04:50:51.539Z,57.70
2022-12-31T04:53:18.225Z,62.47
2022-12-31T04:55:46.047Z,56.10
2022-12-31T04:58:12.900Z,59.25
2022-12-31T05:00:39.625Z,60.65
2022-12-31T05:03:06.478Z,61.40
2022-12-31T05:05:33.281Z,59.15
2022-12-31T05:07:59.949Z,55.03
2022-12-31T05:10:26.817Z,52.95
2022-12-31T05:12:53.616Z,58.88
2022-12-31T05:15:20.381Z,63.47
2022-12-31T05:17:47.101Z,58.53
2022-12-31T05:20:13.841Z,53.80
2022-12-31T05:22:40.596Z,60.47
2022-12-31T05:25:07.848Z,56.05
2022-12-31T05:27:35.174Z,56.85
2022-12-31T05:30:01.953Z,55.13
2022-12-31T05:32:28.651Z,58.05
2022-12-31T05:34:55.827Z,60.22
2022-12-31T05:37:22.757Z,55.97
2022-12-31T05:39:49.554Z,55.20
2022-12-31T05:42:16.263Z,57.92
2022-12-31T05:44:43.102Z,56.53
2022-12-31T05:47:09.976Z,54.08
2022-12-31T05:49:36.797Z,55.05
2022-12-31T05:52:03.629Z,56.30
2022-12-31T05:54:30.406Z,61.10
2022-12-31T05:56:57.281Z,58.08
2022-12-31T05:59:24.188Z,54.97
2022-12-31T06:01:51.081Z,58.70
2022-12-31T06:04:18.762Z,53.72
2022-12-31T06:06:45.429Z,53.33
2022-12-31T06:09:12.319Z,54.83
2022-12-31T06:11:39.306Z,53.63
2022-12-31T06:14:06.100Z,57.65
2022-12-31T06:16:32.845Z,53.15
2022-12-31T06:18:59.614Z,57.03
2022-12-31T06:21:26.308Z,62.67
2022-12-31T06:23:53.060Z,54.67
2022-12-31T06:26:19.983Z,52.53
2022-12-31T06:28:46.771Z,57.83
2022-12-31T06:31:15.163Z,58.75
2022-12-31T06:33:42.547Z,51.38
2022-12-31T06:36:13.280Z,51.05
2022-12-31T06:38:41.417Z,51.72
2022-12-31T06:41:10.640Z,46.78
2022-12-31T06:43:38.704Z,52.08
2022-12-31T06:46:07.751Z,51.42
2022-12-31T06:48:35.010Z,54.10
2022-12-31T06:51:16.596Z,54.78
2022-12-31T06:53:45.157Z,52.58
2022-12-31T06:56:26.490Z,49.47
2022-12-31T06:58:56.889Z,53.33
2022-12-31T07:01:41.617Z,51.33
2022-12-31T07:04:36.389Z,50.15
2022-12-31T07:07:11.895Z,53.47
2022-12-31T07:09:48.954Z,55.75
2022-12-31T07:12:24.975Z,50.97
2022-12-31T07:15:20.199Z,47.15
2022-12-31T07:17:56.854Z,57.22
2022-12-31T07:20:23.979Z,55.92
2022-12-31T07:22:51.007Z,51.38
2022-12-31T07:25:18.968Z,49.08
2022-12-31T07:28:22.506Z,53.70
2022-12-31T07:31:06.800Z,47.28
2022-12-31T07:34:01.890Z,51.03
2022-12-31T07:36:55.976Z,47.63
2022-12-31T07:39:38.400Z,50.20
2022-12-31T07:42:11.204Z,51.50
2022-12-31T07:44:42.392Z,49.80
2022-12-31T07:47:22.868Z,52.55
2022-12-31T07:49:50.303Z,52.42
2022-12-31T07:52:17.939Z,48.40
2022-12-31T07:54:44.684Z,52.22
2022-12-31T07:57:13.828Z,53.38
2022-12-31T08:00:01.671Z,49.53
2022-12-31T08:03:01.944Z,48.13
2022-12-31T08:05:48.514Z,53.17
2022-12-31T08:08:36.350Z,43.22
2022-12-31T08:11:15.020Z,46.53
2022-12-31T08:13:43.349Z,47.95
2022-12-31T08:16:12.371Z,52.05
2022-12-31T08:18:39.915Z,52.28
2022-12-31T08:21:35.039Z,47.58
2022-12-31T08:24:23.246Z,52.80
2022-12-31T08:27:28.314Z,48.03
2022-12-31T08:30:00.650Z,47.42
2022-12-31T08:32:53.139Z,47.90
2022-12-31T08:35:54.809Z,52.60
2022-12-31T08:38:47.749Z,51.85
2022-12-31T08:41:20.400Z,48.85
2022-12-31T08:44:15.337Z,44.35
2022-12-31T08:47:19.641Z,52.47
2022-12-31T08:49:46.847Z,48.55
2022-12-31T08:52:20.033Z,48.55
2022-12-31T08:54:46.976Z,49.13
2022-12-31T08:57:33.862Z,52.88
2022-12-31T09:00:12.125Z,57.85
2022-12-31T09:02:53.745Z,46.38
2022-12-31T09:05:45.782Z,47.85
2022-12-31T09:08:33.352Z,47.63
2022-12-31T09:11:03.157Z,44.75
2022-12-31T09:13:52.926Z,48.45
2022-12-31T09:16:30.405Z,49.55
2022-12-31T09:18:57.149Z,47.13
2022-12-31T09:21:24.454Z,47.67
2022-12-31T09:23:51.343Z,47.83
2022-12-31T09:26:30.192Z,46.88
2022-12-31T09:29:22.242Z,43.33
2022-12-31T09:32:20.155Z,47.38
2022-12-31T09:35:07.318Z,50.42
2022-12-31T09:37:48.586Z,48.35
2022-12-31T09:40:39.767Z,46.45
2022-12-31T09:43:28.101Z,47.47
2022-12-31T09:46:09.941Z,49.28
2022-12-31T09:49:10.689Z,47.03
2022-12-31T09:52:02.031Z,48.33
2022-12-31T09:54:40.234Z,46.33
2022-12-31T09:57:45.903Z,45.45
2022-12-31T10:00:16.065Z,45.25
2022-12-31T10:03:07.356Z,47.30
2022-12-31T10:05:59.535Z,43.70
2022-12-31T10:08:40.678Z,45.33
2022-12-31T10:11:32.171Z,40.60
2022-12-31T10:14:19.176Z,42.47
2022-12-31T10:17:01.208Z,46.40
2022-12-31T10:19:46.149Z,43.72
2022-12-31T10:22:15.875Z,42.03
2022-12-31T10:24:45.569Z,45.40
2022-12-31T10:27:34.140Z,42.67
2022-12-31T10:30:17.546Z,45.53
2022-12-31T10:33:00.322Z,43.28
2022-12-31T10:35:57.128Z,42.53
2022-12-31T10:38:51.199Z,44.17
2022-12-31T10:41:55.768Z,50.80
2022-12-31T10:44:40.939Z,46.25
2022-12-31T10:47:18.742Z,55.47
2022-12-31T10:49:48.815Z,42.65
2022-12-31T10:52:53.248Z,45.28
2022-12-31T10:55:52.419Z,49.53
2022-12-31T10:58:45.464Z,43.85
2022-12-31T11:01:30.574Z,45.80
2022-12-31T11:04:34.893Z,47.03
2022-12-31T11:07:16.924Z,48.72
2022-12-31T11:10:09.029Z,46.70
2022-12-31T11:12:56.794Z,45.05
2022-12-31T11:15:53.791Z,51.33
2022-12-31T11:18:35.381Z,42.40
2022-12-31T11:21:13.705Z,41.40
2022-12-31T11:23:55.355Z,37.65
2022-12-31T11:26:34.864Z,41.60
2022-12-31T11:29:13.565Z,43.65
2022-12-31T11:32:06.350Z,37.97
2022-12-31T11:34:51.028Z,40.78
2022-12-31T11:37:39.572Z,43.28
2022-12-31T11:40:12.186Z,42.10
2022-12-31T11:42:52.084Z,40.45
2022-12-31T11:45:45.650Z,41.40
2022-12-31T11:48:39.340Z,38.28
2022-12-31T11:51:14.901Z,44.85
2022-12-31T11:53:57.506Z,40.83
2022-12-31T11:56:28.355Z,39.75
2022-12-31T11:58:56.473Z,45.25
2022-12-31T12:01:36.273Z,40.00
2022-12-31T12:04:03.582Z,41.85
2022-12-31T12:06:33.622Z,40.90
2022-12-31T12:09:05.717Z,39.20
2022-12-31T12:11:37.360Z,39.47
2022-12-31T12:14:32.265Z,41.13
2022-12-31T12:17:04.640Z,36.47
2022-12-31T12:19:34.037Z,36.60
2022-12-31T12:22:14.259Z,37.70
2022-12-31T12:24:51.701Z,36.85
2022-12-31T12:27:24.609Z,35.70
2022-12-31T12:29:51.419Z,38.08
2022-12-31T12:32:22.352Z,35.75
2022-12-31T12:34:50.119Z,38.42
2022-12-31T12:37:34.388Z,36.85
2022-12-31T12:40:04.308Z,36.90
2022-12-31T12:42:31.891Z,37.38
2022-12-31T12:45:23.345Z,48.47
2022-12-31T12:48:02.134Z,41.92
2022-12-31T12:50:41.567Z,46.42
2022-12-31T12:53:14.239Z,41.95
2022-12-31T12:55:47.534Z,43.20
2022-12-31T12:58:26.001Z,43.72
2022-12-31T13:01:23.835Z,41.55
2022-12-31T13:04:32.350Z,42.47
2022-12-31T13:07:40.711Z,48.35
2022-12-31T13:10:13.289Z,45.33
2022-12-31T13:13:23.314Z,42.70
2022-12-31T13:15:56.682Z,44.17
2022-12-31T13:18:50.107Z,42.15
2022-12-31T13:21:45.527Z,42.65
2022-12-31T13:24:30.661Z,42.22
2022-12-31T13:27:06.398Z,36.73
2022-12-31T13:29:35.846Z,33.08
2022-12-31T13:32:05.710Z,31.38
2022-12-31T13:34:38.550Z,35.17
2022-12-31T13:37:24.476Z,35.92
2022-12-31T13:40:07.614Z,38.83
2022-12-31T13:42:48.171Z,37.05
2022-12-31T13:45:24.483Z,41.22
2022-12-31T13:48:18.772Z,37.72
2022-12-31T13:50:57.639Z,37.15
2022-12-31T13:53:57.262Z,38.13
2022-12-31T13:56:29.304Z,34.53
2022-12-31T13:59:19.154Z,34.08
2022-12-31T14:02:10.015Z,36.95
2022-12-31T14:04:42.046Z,33.53
2022-12-31T14:07:18.193Z,36.85
2022-12-31T14:09:46.450Z,37.72
2022-12-31T14:12:33.171Z,35.15
2022-12-31T14:15:22.878Z,35.83
2022-12-31T14:18:25.737Z,38.10
2022-12-31T14:21:00.257Z,38.65
2022-12-31T14:23:36.060Z,36.38
2022-12-31T14:26:11.220Z,32.67
2022-12-31T14:28:49.395Z,36.88
2022-12-31T14:31:34.281Z,35.35
2022-12-31T14:34:12.932Z,31.67
2022-12-31T14:36:51.812Z,35.47
2022-12-31T14:39:42.913Z,31.38
2022-12-31T14:42:40.019Z,35.22
2022-12-31T14:45:35.664Z,29.08
2022-12-31T14:48:22.281Z,30.80
2022-12-31T14:50:49.510Z,35.92
2022-12-31T14:53:27.055Z,34.33
2022-12-31T14:56:04.062Z,32.38
2022-12-31T14:58:38.752Z,47.92
2022-12-31T15:01:26.475Z,45.17
2022-12-31T15:03:58.172Z,40.30
2022-12-31T15:06:43.533Z,44.78
2022-12-31T15:09:20.451Z,44.65
2022-12-31T15:12:19.902Z,46.08
2022-12-31T15:14:49.374Z,44.97
2022-12-31T15:17:42.537Z,40.15
2022-12-31T15:20:26.775Z,49.67
2022-12-31T15:22:54.715Z,45.65
2022-12-31T15:25:27.013Z,42.53
2022-12-31T15:27:54.468Z,47.67
2022-12-31T15:30:48.689Z,42.95
2022-12-31T15:33:32.291Z,42.95
2022-12-31T15:36:21.604Z,43.38
2022-12-31T15:38:49.724Z,51.08
2022-12-31T15:41:19.234Z,46.60
2022-12-31T15:44:01.102Z,50.03
2022-12-31T15:46:36.986Z,53.58
2022-12-31T15:49:15.583Z,57.30
2022-12-31T15:51:45.083Z,55.95
2022-12-31T15:54:37.060Z,57.42
2022-12-31T15:57:09.220Z,61.53
2022-12-31T15:59:38.195Z,61.40
2022-12-31T16:02:17.721Z,65.10
2022-12-31T16:04:44.855Z,58.00
2022-12-31T16:07:12.501Z,62.80
2022-12-31T16:09:40.189Z,62.75
2022-12-31T16:12:19.088Z,62.42
2022-12-31T16:14:51.654Z,63.92
2022-12-31T16:17:36.041Z,76.93
2022-12-31T16:20:24.493Z,73.60
2022-12-31T16:22:57.665Z,75.10
2022-12-31T16:25:33.744Z,75.32
2022-12-31T16:28:03.821Z,71.03
2022-12-31T16:30:32.278Z,69.28
2022-12-31T16:33:07.436Z,63.50
2022-12-31T16:35:37.520Z,66.57
2022-12-31T16:38:11.332Z,73.05
2022-12-31T16:40:38.867Z,71.97
2022-12-31T16:43:24.125Z,66.40
2022-12-31T16:45:51.121Z,68.50
2022-12-31T16:48:19.655Z,71.22
2022-12-31T16:50:49.366Z,67.80
2022-12-31T16:53:20.924Z,65.68
2022-12-31T16:55:54.816Z,72.65
2022-12-31T16:58:31.540Z,66.47
2022-12-31T17:01:06.878Z,67.20
2022-12-31T17:03:34.808Z,62.70
2022-12-31T17:06:07.893Z,67.45
2022-12-31T17:08:54.786Z,71.90
2022-12-31T17:11:30.773Z,65.07
2022-12-31T17:14:22.975Z,72.95
2022-12-31T17:17:03.071Z,70.53
2022-12-31T17:19:39.284Z,69.60
2022-12-31T17:22:13.272Z,77.60
2022-12-31T17:24:40.377Z,76.78
2022-12-31T17:27:08.811Z,68.95
2022-12-31T17:29:35.925Z,72.15
2022-12-31T17:32:25.838Z,72.70
2022-12-31T17:34:52.671Z,75.47
2022-12-31T17:37:26.667Z,70.82
2022-12-31T17:40:17.052Z,72.30
2022-12-31T17:42:46.422Z,78.97
2022-12-31T17:45:20.578Z,79.30
2022-12-31T17:47:50.983Z,80.72
2022-12-31T17:50:24.367Z,82.80
2022-12-31T17:52:55.731Z,88.75
2022-12-31T17:55:22.809Z,96.43
2022-12-31T17:57:53.294Z,89.95
2022-12-31T18:00:23.892Z,86.43
2022-12-31T18:02:50.913Z,88.40
2022-12-31T18:05:20.815Z,86.78
2022-12-31T18:07:47.915Z,89.35
2022-12-31T18:10:16.510Z,85.10
2022-12-31T18:12:44.759Z,89.93
2022-12-31T18:15:19.442Z,87.93
2022-12-31T18:17:46.194Z,84.50
2022-12-31T18:20:13.515Z,76.68
2022-12-31T18:22:42.070Z,83.07
2022-12-31T18:25:19.974Z,74.47
2022-12-31T18:27:46.781Z,67.78
2022-12-31T18:30:16.521Z,71.82
2022-12-31T18:32:44.887Z,70.72
2022-12-31T18:35:40.614Z,65.47
2022-12-31T18:38:11.317Z,62.33
2022-12-31T18:40:42.533Z,61.05
2022-12-31T18:43:16.276Z,64.93
2022-12-31T18:45:43.446Z,66.45
2022-12-31T18:48:10.228Z,65.07
2022-12-31T18:50:37.479Z,60.05
2022-12-31T18:53:04.238Z,59.05
2022-12-31T18:55:40.216Z,60.90
2022-12-31T18:58:07.920Z,62.78
2022-12-31T19:00:35.670Z,57.25
2022-12-31T19:03:03.009Z,60.53
2022-12-31T19:05:32.409Z,69.78
2022-12-31T19:07:59.850Z,65.80
2022-12-31T19:10:27.888Z,72.63
2022-12-31T19:12:54.833Z,77.90
2022-12-31T19:15:29.919Z,73.18
2022-12-31T19:17:57.299Z,73.50
2022-12-31T19:20:24.205Z,75.35
2022-12-31T19:22:51.133Z,84.05
2022-12-31T19:25:24.602Z,84.25
2022-12-31T19:27:52.009Z,82.88
2022-12-31T19:30:27.430Z,95.68
2022-12-31T19:32:54.190Z,89.65
2022-12-31T19:35:21.962Z,105.90
2022-12-31T19:37:51.388Z,108.97
2022-12-31T19:40:22.516Z,115.63
2022-12-31T19:42:50.521Z,109.53
2022-12-31T19:45:26.785Z,102.05
2022-12-31T19:47:54.831Z,102.45
2022-12-31T19:50:24.450Z,106.68
2022-12-31T19:52:53.476Z,97.43
2022-12-31T19:55:22.479Z,95.72
2022-12-31T19:57:50.158Z,84.72
2022-12-31T20:00:18.519Z,89.63
2022-12-31T20:02:47.409Z,86.63
2022-12-31T20:05:16.393Z,78.40
2022-12-31T20:07:43.396Z,81.47
2022-12-31T20:10:10.944Z,82.97
2022-12-31T20:12:43.955Z,87.88
2022-12-31T20:15:11.371Z,86.40
2022-12-31T20:17:38.131Z,83.15
2022-12-31T20:20:06.870Z,81.57
2022-12-31T20:22:33.905Z,79.40
2022-12-31T20:25:00.700Z,83.55
2022-12-31T20:27:27.897Z,79.63
2022-12-31T20:29:54.629Z,92.93
2022-12-31T20:32:21.543Z,84.97
2022-12-31T20:34:48.443Z,82.85
2022-12-31T20:37:15.440Z,87.25
2022-12-31T20:39:42.836Z,85.88
2022-12-31T20:42:09.689Z,86.90
2022-12-31T20:44:36.508Z,86.75
2022-12-31T20:47:03.319Z,86.75
2022-12-31T20:49:52.551Z,86.20
2022-12-31T20:52:17.047Z,86.85
2022-12-31T20:54:43.699Z,82.78
2022-12-31T20:57:10.355Z,86.05
2022-12-31T20:59:37.119Z,81.80
2022-12-31T21:04:51.072Z,82.90
2022-12-31T21:07:17.958Z,86.03
2022-12-31T21:09:44.612Z,86.25
2022-12-31T21:12:30.685Z,90.28
2022-12-31T21:17:24.308Z,80.60
2022-12-31T21:19:51.463Z,87.10
2022-12-31T21:22:18.171Z,88.97
2022-12-31T21:24:44.840Z,81.15
2022-12-31T21:27:12.034Z,78.60
2022-12-31T21:29:55.751Z,83.57
2022-12-31T21:32:25.530Z,79.72
2022-12-31T21:35:14.959Z,82.47
2022-12-31T21:37:58.032Z,80.07
2022-12-31T21:40:25.781Z,76.22
2022-12-31T21:42:52.569Z,78.72
2022-12-31T21:45:19.211Z,76.53
2022-12-31T21:48:04.768Z,76.25
2022-12-31T21:50:32.293Z,87.25
2022-12-31T21:52:58.994Z,80.30
2022-12-31T21:55:44.182Z,77.25
2022-12-31T21:58:27.729Z,78.10
2022-12-31T22:01:15.137Z,90.72
2022-12-31T22:03:43.166Z,82.57
2022-12-31T22:06:20.423Z,81.78
2022-12-31T22:08:49.702Z,83.22
2022-12-31T22:11:17.873Z,79.55
2022-12-31T22:13:45.353Z,80.70
2022-12-31T22:16:13.174Z,77.43
2022-12-31T22:18:42.738Z,80.30
2022-12-31T22:21:18.192Z,93.20
2022-12-31T22:23:50.431Z,86.90
2022-12-31T22:26:18.872Z,79.93
2022-12-31T22:28:46.440Z,76.88
2022-12-31T22:31:18.572Z,76.53
2022-12-31T22:33:46.252Z,75.75
2022-12-31T22:36:15.629Z,82.40
2022-12-31T22:38:42.804Z,77.10
2022-12-31T22:41:12.126Z,79.78
2022-12-31T22:43:42.539Z,83.93
2022-12-31T22:46:19.449Z,78.25
2022-12-31T22:48:46.316Z,83.07
2022-12-31T22:51:14.388Z,90.20
2022-12-31T22:53:43.263Z,85.90
2022-12-31T22:56:12.228Z,89.53
2022-12-31T22:58:39.457Z,102.72
2022-12-31T23:01:09.033Z,121.80
2022-12-31T23:03:35.893Z,146.18
2022-12-31T23:06:02.686Z,137.18
2022-12-31T23:08:29.454Z,117.22
2022-12-31T23:11:02.740Z,107.50
2022-12-31T23:13:51.417Z,240.88
2022-12-31T23:16:38.106Z,253.20
2022-12-31T23:19:24.294Z,239.57
2022-12-31T23:24:36.798Z,164.27
2022-12-31T23:27:03.665Z,326.75
2022-12-31T23:29:30.495Z,305.40
2022-12-31T23:31:57.469Z,250.10
2022-12-31T23:34:24.200Z,281.08
2022-12-31T23:36:50.939Z,305.02
2022-12-31T23:39:17.722Z,311.90
2022-12-31T23:41:44.457Z,287.58
2022-12-31T23:44:14.376Z,286.63
2022-12-31T23:46:42.359Z,304.13
2022-12-31T23:49:09.149Z,316.98
2022-12-31T23:51:36.667Z,374.50
2022-12-31T23:54:04.383Z,340.98
2022-12-31T23:56:31.238Z,371.50
2022-12-31T23:58:59.238Z,367.23
